Time;durP1;ratioP1;P1;durP2;ratioP2;P2;SDS_P1;SDS_P2;PMS_P1;PMS_P2;Temp;Humidity;BMP_temperature;BMP_pressure;BME280_temperature;BME280_humidity;BME280_pressure;Samples;Min_cycle;Max_cycle;Signal;HPM_P1;HPM_P2
2023/09/10 00:02:09;;;;;;;18.10;16.10;;;;;;;25.39;51.64;100012.56;5029904;28;20045;-73
2023/09/10 00:04:35;;;;;;;20.55;18.35;;;;;;;25.36;51.77;100007.53;5015879;28;20819;-77
2023/09/10 00:07:02;;;;;;;19.83;17.75;;;;;;;25.34;51.56;100009.56;5034186;28;20050;-74
2023/09/10 00:09:29;;;;;;;19.98;17.42;;;;;;;25.31;51.59;100005.34;5016461;28;20076;-72
2023/09/10 00:11:55;;;;;;;18.88;16.83;;;;;;;25.29;51.70;100003.84;5033606;28;20127;-78
2023/09/10 00:14:22;;;;;;;18.08;16.15;;;;;;;25.27;51.63;100005.91;5033906;28;20081;-77
2023/09/10 00:16:49;;;;;;;22.05;18.92;;;;;;;25.23;51.68;100003.56;5033724;28;20045;-76
2023/09/10 00:19:15;;;;;;;21.75;19.45;;;;;;;25.19;52.24;100004.91;5033733;28;20041;-75
2023/09/10 00:21:42;;;;;;;20.67;18.58;;;;;;;25.18;52.31;100002.41;5033590;28;20060;-74
2023/09/10 00:24:11;;;;;;;21.98;17.63;;;;;;;25.14;52.33;100001.94;5033643;28;20045;-73
2023/09/10 00:26:37;;;;;;;20.42;17.17;;;;;;;25.11;52.27;100011.22;5033734;28;20049;-74
2023/09/10 00:29:04;;;;;;;24.38;19.10;;;;;;;25.08;52.63;100008.84;5015982;28;20482;-73
2023/09/10 00:31:34;;;;;;;20.20;18.02;;;;;;;25.04;52.98;100007.53;5015738;28;20136;-72
2023/09/10 00:34:02;;;;;;;21.23;19.13;;;;;;;25.04;52.75;100007.53;5033560;28;20049;-74
2023/09/10 00:36:28;;;;;;;20.40;18.35;;;;;;;25.00;52.76;100011.59;5015975;28;20084;-74
2023/09/10 00:38:55;;;;;;;20.83;17.77;;;;;;;24.99;52.59;100007.22;5033300;28;20561;-75
2023/09/10 00:41:21;;;;;;;17.25;14.35;;;;;;;24.95;52.36;100005.91;5033127;28;20081;-73
2023/09/10 00:43:49;;;;;;;16.40;14.65;;;;;;;24.91;52.58;100004.56;5033175;28;20045;-73
2023/09/10 00:46:16;;;;;;;17.83;15.93;;;;;;;24.88;52.65;100004.91;5033452;28;20045;-75
2023/09/10 00:48:43;;;;;;;17.73;15.95;;;;;;;24.83;52.70;100008.97;5015743;28;20140;-75
2023/09/10 00:51:10;;;;;;;19.85;17.58;;;;;;;24.78;52.56;100008.63;5032774;28;20473;-78
2023/09/10 00:53:37;;;;;;;21.92;18.20;;;;;;;24.75;52.76;100010.84;5033105;28;20053;-74
2023/09/10 00:56:04;;;;;;;19.90;17.65;;;;;;;24.71;52.70;100008.50;5015542;28;20049;-76
2023/09/10 00:58:31;;;;;;;20.90;18.73;;;;;;;24.68;52.67;100008.00;5033015;28;20172;-76
2023/09/10 01:00:58;;;;;;;21.70;19.60;;;;;;;24.66;52.96;100010.03;5033071;28;20063;-74
2023/09/10 01:03:26;;;;;;;21.25;19.13;;;;;;;24.62;53.44;100019.50;5032762;28;20056;-75
2023/09/10 01:05:53;;;;;;;22.65;20.25;;;;;;;24.59;53.40;100015.25;5032907;28;20084;-74
2023/09/10 01:08:20;;;;;;;24.23;19.95;;;;;;;24.56;53.39;100015.63;5032757;28;20499;-74
2023/09/10 01:10:55;;;;;;;22.92;20.52;;;;;;;24.49;54.49;100020.88;5032719;28;20482;-75
2023/09/10 01:13:39;;;;;;;22.77;20.45;;;;;;;24.46;54.49;100018.50;5014806;28;20056;-75
2023/09/10 01:16:35;;;;;;;23.27;20.92;;;;;;;24.43;54.53;100014.31;5015270;28;20084;-76
2023/09/10 01:19:34;;;;;;;24.70;22.17;;;;;;;24.45;55.83;100000.69;5025266;28;20745;-74
2023/09/10 01:22:31;;;;;;;29.25;26.08;;;;;;;24.46;56.50;99999.69;5032297;28;20393;-74
2023/09/10 01:25:00;;;;;;;27.42;24.63;;;;;;;24.49;55.60;100002.03;5006958;28;20045;-74
2023/09/10 01:27:26;;;;;;;27.17;23.73;;;;;;;24.49;55.26;100004.72;5014862;28;20091;-74
2023/09/10 01:29:53;;;;;;;27.08;24.25;;;;;;;24.49;55.65;100006.56;5032263;28;20474;-74
2023/09/10 01:32:32;;;;;;;29.35;24.45;;;;;;;24.43;56.33;100003.56;5031999;28;20441;-76
2023/09/10 01:35:19;;;;;;;24.33;21.92;;;;;;;24.43;55.84;100008.09;5032405;28;20053;-73
2023/09/10 01:37:51;;;;;;;23.83;21.38;;;;;;;24.43;55.41;100011.63;5014672;28;20474;-75
2023/09/10 01:40:51;;;;;;;25.55;22.85;;;;;;;24.40;55.63;100011.97;5014811;28;20103;-74
2023/09/10 01:43:18;;;;;;;23.88;21.33;;;;;;;24.45;54.88;100019.53;5031922;28;20076;-75
2023/09/10 01:45:48;;;;;;;25.60;22.88;;;;;;;24.43;55.19;100018.84;5032359;28;20041;-73
2023/09/10 01:48:15;;;;;;;25.70;23.00;;;;;;;24.40;55.22;100017.34;5014574;28;20050;-72
2023/09/10 01:50:43;;;;;;;22.10;19.85;;;;;;;24.39;54.72;100022.91;5032018;28;20055;-75
2023/09/10 01:53:10;;;;;;;21.38;19.08;;;;;;;24.36;54.26;100018.69;5032033;28;20103;-75
2023/09/10 01:55:36;;;;;;;23.83;21.33;;;;;;;24.33;54.51;100017.19;5031918;28;20140;-75
2023/09/10 01:58:03;;;;;;;23.83;21.38;;;;;;;24.29;54.49;100021.25;5032209;28;20054;-74
2023/09/10 02:00:30;;;;;;;25.77;23.02;;;;;;;24.25;55.37;100016.38;5032012;28;20053;-72
2023/09/10 02:02:56;;;;;;;26.33;23.48;;;;;;;24.23;55.72;100023.78;5031647;28;20052;-74
2023/09/10 02:05:23;;;;;;;26.23;23.52;;;;;;;24.18;55.52;100017.06;5031962;28;20099;-74
2023/09/10 02:07:50;;;;;;;23.58;21.08;;;;;;;24.17;55.71;100025.28;5031829;28;20088;-74
2023/09/10 02:10:16;;;;;;;25.50;22.88;;;;;;;24.16;55.79;100021.78;5031889;28;20045;-75
2023/09/10 02:12:43;;;;;;;27.30;24.38;;;;;;;24.16;56.06;100020.94;5031568;28;20099;-74
2023/09/10 02:15:11;;;;;;;31.83;28.48;;;;;;;24.13;56.80;100010.50;5031666;28;20081;-74
2023/09/10 02:17:37;;;;;;;34.22;27.58;;;;;;;24.12;56.68;100020.44;5031598;28;20044;-77
2023/09/10 02:20:09;;;;;;;33.00;29.08;;;;;;;24.11;57.31;100016.06;5031795;28;20053;-75
2023/09/10 02:22:37;;;;;;;31.13;27.90;;;;;;;24.10;57.30;100016.22;5013940;28;20045;-75
2023/09/10 02:25:05;;;;;;;31.17;28.05;;;;;;;24.08;57.71;100017.19;5031308;28;20697;-73
2023/09/10 02:27:32;;;;;;;32.63;28.67;;;;;;;24.07;57.75;100020.91;5031206;28;20090;-74
2023/09/10 02:29:59;;;;;;;33.78;29.67;;;;;;;24.05;58.14;100014.88;5031399;28;20049;-74
2023/09/10 02:32:25;;;;;;;34.67;30.60;;;;;;;24.05;58.32;100020.25;5031333;28;20045;-75
2023/09/10 02:34:52;;;;;;;31.83;28.40;;;;;;;24.04;58.33;100021.25;5031503;28;20060;-75
2023/09/10 02:37:19;;;;;;;32.90;29.52;;;;;;;24.05;58.62;100020.25;5031273;28;20049;-72
2023/09/10 02:39:45;;;;;;;37.72;30.73;;;;;;;24.05;58.56;100017.56;5031368;28;20037;-73
2023/09/10 02:42:12;;;;;;;33.03;29.48;;;;;;;24.06;58.49;100019.22;5031034;28;20042;-72
2023/09/10 02:44:38;;;;;;;33.35;29.75;;;;;;;24.10;58.71;100025.13;5013388;28;20045;-74
2023/09/10 02:47:05;;;;;;;31.73;28.35;;;;;;;24.11;58.51;100028.69;5031062;28;20045;-78
2023/09/10 02:49:35;;;;;;;33.53;29.90;;;;;;;24.12;59.75;100024.97;5013674;28;20128;-77
2023/09/10 02:52:02;;;;;;;34.58;30.65;;;;;;;24.13;58.80;100029.31;5030893;28;20046;-74
2023/09/10 02:54:29;;;;;;;32.83;29.42;;;;;;;24.13;58.55;100026.63;5030846;28;20056;-74
2023/09/10 02:56:57;;;;;;;32.95;29.33;;;;;;;24.12;58.93;100020.44;5031023;28;20115;-74
2023/09/10 02:59:26;;;;;;;32.83;29.33;;;;;;;24.10;59.01;100025.13;5013336;28;20046;-74
2023/09/10 03:01:53;;;;;;;34.22;28.52;;;;;;;24.10;58.57;100026.97;5030804;28;20053;-75
2023/09/10 03:04:20;;;;;;;30.00;26.95;;;;;;;24.08;58.49;100027.97;5030910;28;20052;-74
2023/09/10 03:06:48;;;;;;;30.10;26.83;;;;;;;24.05;58.05;100025.63;5030974;28;20076;-74
2023/09/10 03:09:16;;;;;;;31.45;28.17;;;;;;;24.04;58.32;100029.31;5030924;28;20084;-74
2023/09/10 03:11:44;;;;;;;33.42;29.98;;;;;;;24.04;58.09;100021.25;5030488;28;20054;-72
2023/09/10 03:14:11;;;;;;;33.20;29.67;;;;;;;24.02;58.63;100025.97;5013182;28;20049;-74
2023/09/10 03:16:38;;;;;;;35.55;31.90;;;;;;;24.02;58.75;100020.59;5030941;28;20655;-74
2023/09/10 03:19:05;;;;;;;35.55;31.48;;;;;;;24.02;59.14;100025.97;5030907;28;20124;-72
2023/09/10 03:21:32;;;;;;;34.83;30.85;;;;;;;24.02;58.85;100025.97;5030574;28;20045;-74
2023/09/10 03:23:59;;;;;;;32.95;29.38;;;;;;;24.02;59.32;100025.09;5013078;28;20140;-76
2023/09/10 03:26:25;;;;;;;33.47;29.90;;;;;;;24.02;59.20;100025.09;5030645;28;20398;-74
2023/09/10 03:28:52;;;;;;;28.65;25.77;;;;;;;24.02;59.08;100022.41;5030903;28;20060;-73
2023/09/10 03:31:18;;;;;;;30.20;27.02;;;;;;;24.01;59.16;100021.59;5030582;28;20049;-73
2023/09/10 03:33:45;;;;;;;29.95;26.83;;;;;;;24.01;59.18;100021.59;5013211;28;20470;-74
2023/09/10 03:36:11;;;;;;;29.73;26.75;;;;;;;24.01;59.04;100024.28;5013142;28;20048;-74
2023/09/10 03:38:38;;;;;;;33.20;29.73;;;;;;;24.01;59.22;100026.97;5032520;28;20049;-76
2023/09/10 03:41:05;;;;;;;29.52;26.48;;;;;;;24.00;59.23;100021.75;5034453;28;20045;-73
2023/09/10 03:43:32;;;;;;;29.15;25.65;;;;;;;23.99;59.04;100023.59;5034269;28;20041;-74
2023/09/10 03:45:58;;;;;;;26.83;24.05;;;;;;;23.97;59.07;100022.09;5034326;28;20478;-74
2023/09/10 03:48:25;;;;;;;28.70;25.80;;;;;;;23.98;58.97;100026.44;5034579;28;20394;-73
2023/09/10 03:50:51;;;;;;;30.13;26.25;;;;;;;23.95;59.28;100020.41;5016801;28;20041;-73
2023/09/10 03:53:18;;;;;;;29.30;26.27;;;;;;;23.94;59.04;100013.38;5016483;28;20138;-77
2023/09/10 03:55:45;;;;;;;30.50;26.73;;;;;;;23.93;59.02;100022.41;5016599;28;20472;-75
2023/09/10 03:58:11;;;;;;;28.58;25.55;;;;;;;23.92;58.95;100020.75;5016924;28;20515;-77
2023/09/10 04:00:38;;;;;;;28.45;23.90;;;;;;;23.90;58.92;100017.41;5016593;28;20525;-74
2023/09/10 04:03:05;;;;;;;27.17;24.30;;;;;;;23.88;58.88;100016.72;5034059;28;20088;-76
2023/09/10 04:05:32;;;;;;;28.42;25.52;;;;;;;23.87;58.98;100011.50;5016530;28;20041;-75
2023/09/10 04:07:58;;;;;;;26.25;23.52;;;;;;;23.85;58.67;100013.53;5034152;28;20631;-74
2023/09/10 04:10:27;;;;;;;27.75;24.77;;;;;;;23.85;58.96;100018.91;5034048;28;20052;-72
2023/09/10 04:12:53;;;;;;;24.98;22.27;;;;;;;23.81;58.56;100016.56;5033933;28;20041;-75
2023/09/10 04:15:20;;;;;;;25.13;22.40;;;;;;;23.79;58.42;100017.72;5033926;28;20053;-76
2023/09/10 04:17:47;;;;;;;26.88;23.98;;;;;;;23.77;58.43;100017.06;5033892;28;20552;-77
2023/09/10 04:20:13;;;;;;;24.42;21.80;;;;;;;23.73;58.63;100016.56;5033953;28;20045;-74
2023/09/10 04:22:40;;;;;;;23.05;20.52;;;;;;;23.71;58.33;100018.59;5015975;28;20478;-74
2023/09/10 04:25:07;;;;;;;24.17;21.02;;;;;;;23.68;58.46;100024.28;5033984;28;20084;-74
2023/09/10 04:27:34;;;;;;;24.27;20.88;;;;;;;23.66;58.02;100020.94;5034185;28;20048;-74
2023/09/10 04:30:01;;;;;;;22.40;19.38;;;;;;;23.63;58.13;100026.63;5033850;28;20135;-79
2023/09/10 04:32:28;;;;;;;22.00;18.98;;;;;;;23.60;58.04;100027.81;5015816;28;20124;-73
2023/09/10 04:34:55;;;;;;;23.60;21.05;;;;;;;23.56;57.91;100035.34;5033613;28;20099;-74
2023/09/10 04:37:22;;;;;;;23.45;19.48;;;;;;;23.53;57.97;100035.69;5015960;28;20556;-74
2023/09/10 04:39:48;;;;;;;19.77;16.75;;;;;;;23.50;57.85;100041.38;5033734;28;20084;-77
2023/09/10 04:42:15;;;;;;;21.75;19.35;;;;;;;23.48;58.11;100032.66;5033164;28;20470;-75
2023/09/10 04:44:41;;;;;;;27.00;19.65;;;;;;;23.45;57.91;100033.00;5033286;28;20631;-75
2023/09/10 04:47:08;;;;;;;20.35;18.20;;;;;;;23.41;57.54;100037.00;5033368;28;20072;-75
2023/09/10 04:49:34;;;;;;;20.88;18.67;;;;;;;23.41;57.94;100042.38;5032726;28;20049;-71
2023/09/10 04:52:01;;;;;;;20.67;18.40;;;;;;;23.38;57.95;100034.66;5015703;28;20045;-74
2023/09/10 04:54:28;;;;;;;25.08;19.65;;;;;;;23.36;58.18;100029.44;5033436;28;20725;-75
2023/09/10 04:56:54;;;;;;;20.23;17.02;;;;;;;23.35;57.97;100038.50;5015592;28;20092;-78
2023/09/10 04:59:24;;;;;;;21.40;18.83;;;;;;;23.33;58.01;100028.91;5033240;28;20120;-76
2023/09/10 05:01:51;;;;;;;21.17;18.88;;;;;;;23.32;58.18;100040.66;5015329;28;20192;-74
2023/09/10 05:04:18;;;;;;;18.33;16.48;;;;;;;23.30;57.92;100036.28;5032957;28;20050;-77
2023/09/10 05:06:44;;;;;;;18.75;16.85;;;;;;;23.28;57.77;100038.28;5033264;28;20053;-76
2023/09/10 05:09:11;;;;;;;19.02;17.10;;;;;;;23.26;57.52;100036.78;5015560;28;20126;-72
2023/09/10 05:11:37;;;;;;;20.20;16.75;;;;;;;23.24;57.59;100034.25;5015339;28;20053;-76
2023/09/10 05:14:04;;;;;;;18.77;16.83;;;;;;;23.21;57.73;100031.88;5032940;28;20064;-75
2023/09/10 05:16:30;;;;;;;18.48;16.52;;;;;;;23.19;57.88;100039.28;5014965;28;20042;-72
2023/09/10 05:18:57;;;;;;;18.23;16.42;;;;;;;23.18;58.05;100040.28;5015228;28;20041;-73
2023/09/10 05:21:24;;;;;;;26.60;18.00;;;;;;;23.16;58.08;100043.13;5032451;28;20449;-75
2023/09/10 05:23:50;;;;;;;22.45;19.02;;;;;;;23.15;58.50;100032.56;5032821;28;20052;-74
2023/09/10 05:26:17;;;;;;;20.58;18.38;;;;;;;23.15;58.61;100046.84;5015094;28;20414;-74
2023/09/10 05:28:43;;;;;;;20.50;17.70;;;;;;;23.15;58.49;100044.16;5032748;28;20045;-75
2023/09/10 05:31:13;;;;;;;20.40;18.10;;;;;;;23.17;58.55;100046.66;5032246;28;20045;-75
2023/09/10 05:33:39;;;;;;;18.52;16.40;;;;;;;23.17;58.76;100054.69;5032280;28;20068;-76
2023/09/10 05:36:06;;;;;;;19.58;17.48;;;;;;;23.17;58.80;100049.31;5032528;28;20470;-76
2023/09/10 05:38:33;;;;;;;19.38;17.45;;;;;;;23.21;59.00;100050.69;5014725;28;20128;-75
2023/09/10 05:41:02;;;;;;;19.38;17.27;;;;;;;23.22;59.13;100048.84;5014608;28;20053;-78
2023/09/10 05:43:29;;;;;;;18.00;16.13;;;;;;;23.24;59.26;100044.16;5032213;28;20390;-74
2023/09/10 05:45:57;;;;;;;16.70;15.02;;;;;;;23.26;59.04;100050.22;5014556;28;20049;-76
2023/09/10 05:48:24;;;;;;;16.60;14.75;;;;;;;23.28;58.85;100045.50;5032265;28;20132;-74
2023/09/10 05:50:58;;;;;;;17.38;15.57;;;;;;;23.27;59.37;100042.00;5014545;28;20041;-76
2023/09/10 05:53:24;;;;;;;17.98;16.20;;;;;;;23.31;59.05;100045.19;5031934;28;20616;-74
2023/09/10 05:55:51;;;;;;;17.23;14.82;;;;;;;23.33;58.90;100040.50;5032372;28;20049;-73
2023/09/10 05:58:19;;;;;;;18.08;15.15;;;;;;;23.34;58.98;100044.03;5032113;28;20144;-73
2023/09/10 06:00:45;;;;;;;16.60;14.88;;;;;;;23.36;59.16;100052.78;5013736;28;20401;-74
2023/09/10 06:03:12;;;;;;;15.35;13.75;;;;;;;23.38;58.67;100048.06;5031935;28;20591;-80
2023/09/10 06:05:39;;;;;;;15.93;14.25;;;;;;;23.40;58.82;100054.97;5031765;28;20046;-74
2023/09/10 06:08:05;;;;;;;15.85;14.25;;;;;;;23.43;58.98;100060.03;5031920;28;20474;-76
2023/09/10 06:10:32;;;;;;;15.40;12.48;;;;;;;23.46;58.85;100058.84;5031764;28;20053;-74
2023/09/10 06:12:58;;;;;;;16.08;13.45;;;;;;;23.50;58.88;100059.34;5013798;28;20057;-75
2023/09/10 06:15:27;;;;;;;14.73;13.23;;;;;;;23.53;58.82;100065.25;5014133;28;20456;-73
2023/09/10 06:17:54;;;;;;;13.85;12.45;;;;;;;23.56;58.60;100066.75;5032011;28;20103;-75
2023/09/10 06:20:20;;;;;;;14.30;12.55;;;;;;;23.59;58.47;100071.81;5014272;28;20366;-74
2023/09/10 06:22:47;;;;;;;14.52;12.85;;;;;;;23.63;58.53;100075.00;5031299;28;20045;-75
2023/09/10 06:25:14;;;;;;;15.50;13.75;;;;;;;23.67;58.72;100077.19;5031578;28;20176;-77
2023/09/10 06:27:40;;;;;;;15.35;13.75;;;;;;;23.71;58.52;100077.69;5031436;28;20055;-74
2023/09/10 06:30:07;;;;;;;14.15;12.77;;;;;;;23.76;58.35;100077.19;5031702;28;20099;-78
2023/09/10 06:32:34;;;;;;;14.05;12.65;;;;;;;23.80;58.55;100079.38;5031255;28;20115;-76
2023/09/10 06:35:00;;;;;;;15.63;12.80;;;;;;;23.85;58.44;100080.75;5013880;28;20092;-74
2023/09/10 06:37:27;;;;;;;16.98;13.60;;;;;;;23.89;58.85;100082.09;5013890;28;20060;-75
2023/09/10 06:39:54;;;;;;;14.57;13.07;;;;;;;23.93;58.63;100086.94;5031309;28;20463;-73
2023/09/10 06:42:20;;;;;;;12.20;11.00;;;;;;;23.98;58.80;100086.47;5013361;28;20042;-75
2023/09/10 06:44:47;;;;;;;14.52;13.10;;;;;;;24.02;58.71;100086.94;5031183;28;20069;-75
2023/09/10 06:47:13;;;;;;;15.93;13.70;;;;;;;24.07;58.68;100093.50;5030640;28;20053;-74
2023/09/10 06:49:40;;;;;;;16.42;14.77;;;;;;;24.11;58.63;100085.97;5031137;28;20498;-76
2023/09/10 06:52:09;;;;;;;14.88;13.43;;;;;;;24.16;58.98;100088.16;5030951;28;20068;-75
2023/09/10 06:54:36;;;;;;;16.20;14.52;;;;;;;24.19;58.77;100085.97;5030807;28;20049;-74
2023/09/10 06:57:03;;;;;;;17.40;15.23;;;;;;;24.24;58.59;100092.69;5031080;28;20110;-74
2023/09/10 06:59:30;;;;;;;15.73;14.07;;;;;;;24.29;58.57;100088.50;5031152;28;20514;-76
2023/09/10 07:01:56;;;;;;;14.23;12.38;;;;;;;24.33;58.22;100097.91;5030760;28;20055;-75
2023/09/10 07:04:24;;;;;;;16.48;14.77;;;;;;;24.38;58.42;100097.41;5031031;28;20115;-74
2023/09/10 07:06:52;;;;;;;16.60;14.25;;;;;;;24.42;58.66;100095.19;5030854;28;20107;-78
2023/09/10 07:09:23;;;;;;;23.83;12.48;;;;;;;24.47;58.80;100098.22;5030789;28;20425;-74
2023/09/10 07:11:54;;;;;;;14.88;13.38;;;;;;;24.51;58.30;100104.13;5030769;28;20436;-77
2023/09/10 07:14:21;;;;;;;16.77;13.40;;;;;;;24.57;58.21;100106.13;5013412;28;20053;-75
2023/09/10 07:16:48;;;;;;;14.52;13.02;;;;;;;24.62;57.88;100105.63;5030841;28;20050;-74
2023/09/10 07:19:15;;;;;;;14.20;12.75;;;;;;;24.66;57.62;100098.84;5030798;28;20057;-78
2023/09/10 07:21:43;;;;;;;15.93;13.13;;;;;;;24.69;58.16;100107.44;5030472;28;20160;-76
2023/09/10 07:24:10;;;;;;;14.98;12.73;;;;;;;24.74;57.66;100104.22;5030722;28;20048;-73
2023/09/10 07:26:37;;;;;;;12.70;11.40;;;;;;;24.79;57.44;100109.09;5013317;28;20080;-74
2023/09/10 07:29:05;;;;;;;13.32;11.80;;;;;;;24.83;57.49;100107.72;5030783;28;20490;-75
2023/09/10 07:31:33;;;;;;;14.30;12.90;;;;;;;24.87;57.41;100109.09;5030317;28;20128;-73
2023/09/10 07:34:00;;;;;;;12.50;11.20;;;;;;;24.91;57.19;100112.28;5013109;28;20081;-75
2023/09/10 07:36:27;;;;;;;14.13;12.15;;;;;;;24.95;57.67;100117.16;5030457;28;20049;-77
2023/09/10 07:38:54;;;;;;;12.65;11.43;;;;;;;24.99;57.35;100117.63;5030644;28;20092;-76
2023/09/10 07:41:22;;;;;;;14.73;12.07;;;;;;;25.04;57.40;100114.44;5030499;28;20049;-78
2023/09/10 07:43:48;;;;;;;13.38;12.05;;;;;;;25.07;56.91;100120.31;5030543;28;20107;-74
2023/09/10 07:46:15;;;;;;;13.13;11.75;;;;;;;25.13;57.02;100112.53;5030591;28;20402;-77
2023/09/10 07:48:41;;;;;;;12.45;11.20;;;;;;;25.17;57.02;100113.88;5030625;28;20052;-75
2023/09/10 07:51:08;;;;;;;13.57;12.18;;;;;;;25.22;56.59;100119.56;5030409;28;20504;-77
2023/09/10 07:53:34;;;;;;;10.98;9.73;;;;;;;25.27;57.05;100122.59;5030478;28;20041;-74
2023/09/10 07:56:01;;;;;;;12.00;10.82;;;;;;;25.32;56.76;100127.44;5045556;22;20527;-82
2023/09/10 07:58:28;;;;;;;11.93;10.68;;;;;;;25.36;57.07;100126.06;4990434;28;20047;-83
2023/09/10 08:00:55;;;;;;;12.13;10.30;;;;;;;25.41;56.95;100126.38;4990521;28;20141;-83
2023/09/10 08:03:22;;;;;;;11.50;10.38;;;;;;;25.46;56.97;100129.38;4990093;28;20058;-82
2023/09/10 08:05:49;;;;;;;13.57;12.27;;;;;;;25.51;56.90;100126.16;4990266;28;20810;-82
2023/09/10 08:08:15;;;;;;;15.10;12.13;;;;;;;25.54;56.78;100128.50;4990533;28;20059;-82
2023/09/10 08:10:44;;;;;;;12.40;11.18;;;;;;;25.59;56.50;100128.84;4990569;28;20105;-83
2023/09/10 08:13:14;;;;;;;13.15;11.90;;;;;;;25.65;56.68;100129.16;4991338;28;20050;-84
2023/09/10 08:15:41;;;;;;;15.95;12.38;;;;;;;25.70;56.31;100135.69;4974172;28;20050;-83
2023/09/10 08:18:11;;;;;;;15.02;12.38;;;;;;;25.75;56.27;100136.00;4991361;28;20149;-85
2023/09/10 08:20:41;;;;;;;12.48;11.18;;;;;;;25.81;56.35;100126.34;4991699;28;20133;-83
2023/09/10 08:23:09;;;;;;;12.52;11.13;;;;;;;25.87;56.10;100138.28;4991055;28;20713;-82
2023/09/10 08:25:36;;;;;;;12.15;10.77;;;;;;;25.92;56.15;100137.72;4994452;28;20046;-83
2023/09/10 08:28:03;;;;;;;12.25;10.93;;;;;;;25.97;55.85;100129.94;4994892;28;20050;-84
2023/09/10 08:30:31;;;;;;;11.52;10.43;;;;;;;26.02;55.80;100138.34;4994709;28;20578;-83
2023/09/10 08:32:57;;;;;;;12.45;11.15;;;;;;;26.08;55.99;100139.47;4976996;28;20141;-82
2023/09/10 08:35:41;;;;;;;13.18;11.60;;;;;;;26.12;56.03;100133.53;4994629;28;20050;-84
2023/09/10 08:38:07;;;;;;;13.80;12.43;;;;;;;26.22;55.64;100132.44;4994760;28;20113;-83
2023/09/10 08:40:38;;;;;;;13.90;11.90;;;;;;;26.26;55.66;100137.34;4994650;28;20080;-83
2023/09/10 08:43:11;;;;;;;12.48;11.27;;;;;;;26.31;55.15;100134.09;4994270;28;20085;-82
2023/09/10 08:45:37;;;;;;;12.60;11.30;;;;;;;26.38;55.32;100126.09;4994590;28;20152;-84
2023/09/10 08:48:04;;;;;;;13.27;11.80;;;;;;;26.45;55.32;100127.06;4994702;28;20042;-80
2023/09/10 08:50:32;;;;;;;16.10;11.90;;;;;;;26.51;55.25;100129.00;4994500;28;20053;-82
2023/09/10 08:52:59;;;;;;;14.98;12.68;;;;;;;26.57;55.09;100129.31;4994231;28;20093;-83
2023/09/10 08:55:26;;;;;;;13.60;12.20;;;;;;;26.64;54.72;100124.84;4976708;28;20052;-84
2023/09/10 08:57:56;;;;;;;12.45;11.15;;;;;;;26.69;55.05;100127.00;4994217;28;20502;-83
2023/09/10 09:00:24;;;;;;;15.02;11.43;;;;;;;26.76;54.38;100134.16;4994006;28;20057;-83
2023/09/10 09:02:51;;;;;;;13.15;11.85;;;;;;;26.82;54.59;100126.34;4994082;28;20141;-83
2023/09/10 09:05:18;;;;;;;13.43;12.02;;;;;;;26.88;54.79;100131.81;4994272;28;20050;-85
2023/09/10 09:07:52;;;;;;;14.48;11.63;;;;;;;26.92;54.60;100125.03;4994226;28;20046;-82
2023/09/10 09:10:24;;;;;;;17.30;12.45;;;;;;;27.00;54.29;100124.16;4994125;28;20484;-83
2023/09/10 09:12:54;;;;;;;;;;;;;;;27.05;54.87;100129.81;4976005;28;20047;-84
2023/09/10 09:15:20;;;;;;;13.23;11.77;;;;;;;27.21;54.38;100136.03;4993144;28;20033;-83
2023/09/10 09:17:48;;;;;;;14.43;12.30;;;;;;;27.26;54.20;100132.78;4993675;28;20046;-83
2023/09/10 09:20:19;;;;;;;13.65;11.85;;;;;;;27.31;54.19;100124.94;4993907;28;20046;-83
2023/09/10 09:22:50;;;;;;;13.98;12.35;;;;;;;27.34;54.19;100135.38;4993319;28;20057;-83
2023/09/10 09:25:16;;;;;;;14.55;13.02;;;;;;;27.40;54.16;100125.69;4993296;28;20057;-83
2023/09/10 09:27:43;;;;;;;13.65;12.15;;;;;;;27.47;54.00;100128.47;4993199;28;20403;-83
2023/09/10 09:30:11;;;;;;;15.50;13.05;;;;;;;27.51;54.44;100124.34;4976705;28;20408;-83
2023/09/10 09:32:38;;;;;;;13.93;12.48;;;;;;;27.58;53.65;100123.38;4993421;28;20418;-88
2023/09/10 09:35:09;;;;;;;13.55;12.25;;;;;;;27.63;53.40;100120.16;4993063;28;20052;-83
2023/09/10 09:37:36;;;;;;;13.32;11.90;;;;;;;27.70;53.67;100117.53;4993403;28;20058;-86
2023/09/10 09:40:04;;;;;;;17.45;13.00;;;;;;;27.77;53.62;100123.00;4993596;28;20407;-83
2023/09/10 09:42:30;;;;;;;12.73;11.35;;;;;;;27.84;53.16;100116.63;4993396;28;20052;-83
2023/09/10 09:44:57;;;;;;;16.20;11.65;;;;;;;27.92;54.27;100122.94;4993644;28;20050;-84
2023/09/10 09:47:24;;;;;;;12.05;10.85;;;;;;;27.99;54.29;100120.28;4993503;28;20085;-83
2023/09/10 09:49:50;;;;;;;12.68;11.38;;;;;;;28.06;53.86;100121.16;4993510;28;20108;-84
2023/09/10 09:52:18;;;;;;;10.57;9.60;;;;;;;28.12;52.71;100106.88;4993319;28;20053;-84
2023/09/10 09:54:48;;;;;;;13.13;9.93;;;;;;;28.19;52.20;100112.34;4993527;28;20048;-83
2023/09/10 09:57:16;;;;;;;14.07;9.55;;;;;;;28.29;53.70;100117.47;4976023;28;20050;-83
2023/09/10 09:59:43;;;;;;;10.20;9.23;;;;;;;28.35;52.76;100114.81;4975980;28;20092;-83
2023/09/10 10:02:15;;;;;;;11.50;9.25;;;;;;;28.43;52.40;100113.81;4992842;28;20108;-87
2023/09/10 10:04:43;;;;;;;9.85;8.85;;;;;;;28.54;53.24;100103.47;4976129;28;20054;-83
2023/09/10 10:07:12;;;;;;;10.15;9.02;;;;;;;28.65;54.55;100104.78;4993045;28;20097;-83
2023/09/10 10:09:50;;;;;;;8.85;8.00;;;;;;;28.79;53.95;100108.41;4993035;28;20128;-83
2023/09/10 10:12:17;;;;;;;10.00;8.98;;;;;;;28.90;53.59;100105.19;4975223;28;20046;-84
2023/09/10 10:14:44;;;;;;;9.90;8.52;;;;;;;29.03;51.85;100103.56;4992911;28;20097;-82
2023/09/10 10:17:13;;;;;;;9.23;8.13;;;;;;;29.15;53.28;100106.53;4993206;28;20054;-84
2023/09/10 10:19:40;;;;;;;9.48;8.35;;;;;;;29.29;52.72;100107.44;4992816;28;20483;-83
2023/09/10 10:22:08;;;;;;;12.50;9.32;;;;;;;29.38;53.60;100098.06;4992567;28;20479;-83
2023/09/10 10:24:35;;;;;;;9.95;8.65;;;;;;;29.51;53.92;100086.41;4992790;28;20104;-83
2023/09/10 10:27:02;;;;;;;10.88;8.40;;;;;;;29.62;53.31;100091.28;4992705;28;20047;-83
2023/09/10 10:29:28;;;;;;;8.32;7.53;;;;;;;29.73;52.30;100089.84;4992616;28;20133;-83
2023/09/10 10:32:00;;;;;;;8.07;6.78;;;;;;;29.84;51.53;100099.25;4992360;28;20043;-83
2023/09/10 10:34:35;;;;;;;10.50;9.30;;;;;;;29.95;51.57;100096.94;4975655;28;20066;-83
2023/09/10 10:37:14;;;;;;;8.73;7.28;;;;;;;30.04;51.32;100088.41;4992718;28;20061;-83
2023/09/10 10:39:57;;;;;;;9.32;6.80;;;;;;;30.15;51.61;100080.69;4992543;28;20452;-83
2023/09/10 10:43:18;;;;;;;8.50;6.53;;;;;;;30.26;50.56;100079.22;4992224;28;20082;-86
2023/09/10 10:45:47;;;;;;;9.48;6.13;;;;;;;30.43;50.97;100082.34;4894259;29;20049;-81
2023/09/10 10:48:18;;;;;;;7.45;6.18;;;;;;;30.52;50.00;100080.22;4973746;28;20050;-83
2023/09/10 10:50:46;;;;;;;10.37;6.27;;;;;;;30.62;49.62;100071.66;4975270;28;20064;-82
2023/09/10 10:53:26;;;;;;;11.20;6.38;;;;;;;30.69;48.44;100078.72;4974690;28;20495;-84
2023/09/10 10:56:03;;;;;;;6.90;5.85;;;;;;;30.81;48.56;100080.81;4992371;28;20051;-84
2023/09/10 10:58:31;;;;;;;13.05;6.30;;;;;;;30.94;48.15;100078.03;4975005;28;20073;-84
2023/09/10 11:00:58;;;;;;;7.50;6.07;;;;;;;31.10;48.68;100083.22;4992393;28;20129;-84
2023/09/10 11:03:26;;;;;;;6.47;5.63;;;;;;;31.28;48.55;100079.78;4992164;28;20046;-82
2023/09/10 11:05:52;;;;;;;8.15;6.20;;;;;;;31.54;48.81;100080.72;4992205;28;20093;-84
2023/09/10 11:08:26;;;;;;;8.60;5.78;;;;;;;31.87;47.88;100073.38;4992084;28;20510;-83
2023/09/10 11:10:54;;;;;;;8.55;5.80;;;;;;;32.35;50.37;100080.94;4992052;28;20129;-83
2023/09/10 11:13:22;;;;;;;9.48;5.40;;;;;;;32.92;49.16;100070.06;4992100;28;20054;-85
2023/09/10 11:16:06;;;;;;;9.10;5.40;;;;;;;33.57;45.94;100068.63;4992040;28;20483;-84
2023/09/10 11:18:36;;;;;;;7.80;5.22;;;;;;;34.25;45.47;100064.78;4992058;28;20093;-84